Time;durP1;ratioP1;P1;durP2;ratioP2;P2;SDS_P1;SDS_P2;PMS_P1;PMS_P2;Temp;Humidity;BMP_temperature;BMP_pressure;BME280_temperature;BME280_humidity;BME280_pressure;Samples;Min_cycle;Max_cycle;Signal;HPM_P1;HPM_P2
2023/01/11 00:00:55;;;;;;;0.30;0.30;;;20.40;50.20;;;;;;5049241;28;20515;-59
2023/01/11 00:03:21;;;;;;;0.30;0.30;;;20.40;50.20;;;;;;5033734;28;20048;-58
2023/01/11 00:05:46;;;;;;;0.82;0.43;;;20.40;50.20;;;;;;5051214;28;20055;-55
2023/01/11 00:08:12;;;;;;;0.40;0.30;;;20.40;50.20;;;;;;5057184;28;20098;-56
2023/01/11 00:10:38;;;;;;;0.57;0.40;;;20.40;50.20;;;;;;5051042;28;20384;-58
2023/01/11 00:13:04;;;;;;;0.20;0.20;;;20.40;50.30;;;;;;5055907;28;20115;-57
2023/01/11 00:15:30;;;;;;;1.38;0.38;;;20.40;50.30;;;;;;5049988;28;20080;-57
2023/01/11 00:17:56;;;;;;;0.60;0.40;;;20.40;50.30;;;;;;5049045;28;20168;-56
2023/01/11 00:20:22;;;;;;;0.43;0.40;;;20.40;50.30;;;;;;5049968;28;20071;-59
2023/01/11 00:22:48;;;;;;;0.90;0.60;;;20.30;50.30;;;;;;5047511;28;20037;-57
2023/01/11 00:25:13;;;;;;;0.45;0.40;;;20.30;50.40;;;;;;5049349;28;20052;-57
2023/01/11 00:27:39;;;;;;;0.65;0.40;;;20.30;50.30;;;;;;5048010;28;20056;-57
2023/01/11 00:30:05;;;;;;;0.52;0.30;;;20.30;50.40;;;;;;5047597;28;20043;-56
2023/01/11 00:32:31;;;;;;;0.55;0.30;;;20.30;50.40;;;;;;5048211;28;20151;-56
2023/01/11 00:34:56;;;;;;;0.68;0.30;;;20.30;50.50;;;;;;5050199;28;20131;-56
2023/01/11 00:37:22;;;;;;;0.47;0.30;;;20.30;50.40;;;;;;5049438;28;20040;-56
2023/01/11 00:39:48;;;;;;;0.43;0.38;;;20.30;50.50;;;;;;5081684;28;20041;-56
2023/01/11 00:50:39;;;;;;;0.95;0.32;;;20.30;50.60;;;;;;5039484;28;20052;-59
2023/01/11 00:53:05;;;;;;;0.40;0.40;;;20.20;50.50;;;;;;5080777;28;20048;-56
2023/01/11 00:55:31;;;;;;;0.30;0.30;;;20.20;50.60;;;;;;5058120;28;20052;-56
2023/01/11 00:57:57;;;;;;;0.40;0.38;;;20.20;50.50;;;;;;5048374;28;20049;-57
2023/01/11 01:00:24;;;;;;;0.50;0.30;;;20.20;50.60;;;;;;5056813;28;20064;-56
2023/01/11 01:02:50;;;;;;;0.45;0.28;;;20.20;50.60;;;;;;5049457;28;20044;-56
2023/01/11 01:05:16;;;;;;;0.20;0.20;;;20.20;50.60;;;;;;5050845;28;20446;-56
2023/01/11 01:07:43;;;;;;;0.22;0.22;;;20.20;50.60;;;;;;5049490;28;20094;-58
2023/01/11 01:10:11;;;;;;;0.40;0.30;;;20.20;50.60;;;;;;5048076;28;20497;-56
2023/01/11 01:15:21;;;;;;;0.47;0.30;;;20.10;50.60;;;;;;5048490;28;20468;-58
2023/01/11 01:17:47;;;;;;;0.40;0.40;;;20.10;50.60;;;;;;5049372;28;20396;-57
2023/01/11 01:20:13;;;;;;;0.40;0.30;;;20.10;50.60;;;;;;5047881;28;20069;-55
2023/01/11 01:22:39;;;;;;;0.30;0.30;;;20.10;50.60;;;;;;5050851;28;20036;-56
2023/01/11 01:25:05;;;;;;;0.22;0.20;;;20.10;50.70;;;;;;5049240;28;20039;-57
2023/01/11 01:27:31;;;;;;;0.20;0.20;;;20.10;50.70;;;;;;5047231;28;20061;-58
2023/01/11 01:29:57;;;;;;;0.30;0.30;;;20.10;50.70;;;;;;5057063;28;20053;-56
2023/01/11 01:32:22;;;;;;;0.30;0.28;;;20.10;50.70;;;;;;5048902;28;20036;-56
2023/01/11 01:34:48;;;;;;;0.25;0.20;;;20.10;50.70;;;;;;5050108;28;20411;-57
2023/01/11 01:37:14;;;;;;;0.20;0.20;;;20.10;50.70;;;;;;5049295;28;20167;-56
2023/01/11 01:39:40;;;;;;;0.20;0.20;;;20.10;50.80;;;;;;5046306;28;20479;-56
2023/01/11 01:42:15;;;;;;;0.38;0.30;;;20.10;50.80;;;;;;5046217;28;20053;-57
2023/01/11 01:44:51;;;;;;;0.20;0.20;;;20.10;50.80;;;;;;5048713;28;20083;-56
2023/01/11 01:47:20;;;;;;;0.40;0.30;;;20.10;50.90;;;;;;5048607;28;20041;-56
2023/01/11 01:49:46;;;;;;;0.32;0.20;;;20.10;50.80;;;;;;5046727;28;20610;-56
2023/01/11 01:52:12;;;;;;;0.55;0.30;;;20.10;50.80;;;;;;5048227;28;20049;-57
2023/01/11 01:54:43;;;;;;;0.22;0.20;;;20.00;50.80;;;;;;5050928;28;20044;-56
2023/01/11 01:57:15;;;;;;;0.30;0.30;;;20.10;50.90;;;;;;5049285;28;20036;-56
2023/01/11 01:59:41;;;;;;;0.20;0.15;;;20.00;50.90;;;;;;5048474;28;20044;-56
2023/01/11 02:02:07;;;;;;;0.20;0.20;;;20.00;51.00;;;;;;5046460;28;20107;-56
2023/01/11 02:04:39;;;;;;;0.20;0.20;;;20.00;51.00;;;;;;5049743;28;20033;-56
2023/01/11 02:07:19;;;;;;;0.20;0.10;;;20.00;51.00;;;;;;5047455;28;20056;-56
2023/01/11 02:09:59;;;;;;;0.38;0.28;;;20.00;51.00;;;;;;5050286;28;20075;-57
2023/01/11 02:12:28;;;;;;;0.90;0.30;;;20.00;51.00;;;;;;5049707;28;20052;-58
2023/01/11 02:14:54;;;;;;;0.52;0.20;;;20.00;51.00;;;;;;5053928;28;20045;-56
2023/01/11 02:17:20;;;;;;;0.40;0.28;;;20.00;51.10;;;;;;5050924;28;20056;-57
2023/01/11 02:19:58;;;;;;;1.48;0.30;;;20.00;51.10;;;;;;5051538;28;20540;-59
2023/01/11 02:22:48;;;;;;;0.22;0.13;;;19.90;51.00;;;;;;5048486;28;20051;-56
2023/01/11 02:25:26;;;;;;;0.32;0.30;;;20.00;51.10;;;;;;5053941;28;20536;-57
2023/01/11 02:28:28;;;;;;;0.20;0.20;;;19.90;51.10;;;;;;5050790;28;20064;-56
2023/01/11 02:31:26;;;;;;;0.20;0.20;;;19.90;51.10;;;;;;5034499;28;20102;-57
2023/01/11 02:34:06;;;;;;;0.22;0.20;;;19.90;51.40;;;;;;5050587;28;20033;-57
2023/01/11 02:36:53;;;;;;;0.10;0.10;;;19.90;51.30;;;;;;5051511;28;20132;-56
2023/01/11 02:39:51;;;;;;;0.28;0.20;;;19.90;51.20;;;;;;5053995;28;20103;-58
2023/01/11 02:45:46;;;;;;;0.50;0.28;;;19.90;51.30;;;;;;5053244;28;20048;-56
2023/01/11 02:48:17;;;;;;;0.13;0.13;;;19.90;51.30;;;;;;5061047;28;20048;-59
2023/01/11 02:50:47;;;;;;;0.20;0.20;;;19.90;51.40;;;;;;5051483;28;20041;-56
2023/01/11 02:53:28;;;;;;;0.17;0.17;;;19.90;51.40;;;;;;5050930;28;20059;-57
2023/01/11 02:55:56;;;;;;;;;;;19.90;51.40;;;;;;5052806;28;20045;-57
2023/01/11 02:58:26;;;;;;;0.50;0.30;;;19.80;51.50;;;;;;5053217;28;19931;-56
2023/01/11 03:00:54;;;;;;;0.28;0.20;;;19.80;51.50;;;;;;5051209;28;20110;-57
2023/01/11 03:03:29;;;;;;;0.57;0.20;;;19.80;51.60;;;;;;5049820;28;20811;-56
2023/01/11 03:06:04;;;;;;;0.63;0.22;;;19.80;51.60;;;;;;5052020;28;20067;-56
2023/01/11 03:09:00;;;;;;;0.20;0.20;;;19.80;52.20;;;;;;5082937;28;20147;-57
2023/01/11 03:15:07;;;;;;;0.20;0.20;;;19.80;51.60;;;;;;5050011;28;20052;-57
2023/01/11 03:17:56;;;;;;;0.28;0.20;;;19.80;51.70;;;;;;5035201;28;20131;-57
2023/01/11 03:20:27;;;;;;;0.38;0.20;;;19.80;51.70;;;;;;5052563;28;20060;-57
2023/01/11 03:23:18;;;;;;;0.95;0.20;;;19.80;51.70;;;;;;5050418;28;20110;-58
2023/01/11 03:26:08;;;;;;;0.10;0.10;;;19.80;51.70;;;;;;5042774;28;20053;-56
2023/01/11 03:28:37;;;;;;;1.90;0.23;;;19.80;51.80;;;;;;5049999;28;20036;-56
2023/01/11 03:31:27;;;;;;;0.20;0.20;;;19.70;51.80;;;;;;5049517;28;20060;-59
2023/01/11 03:34:13;;;;;;;0.10;0.10;;;19.70;51.80;;;;;;5084172;28;20045;-56
2023/01/11 03:36:46;;;;;;;0.20;0.20;;;19.70;51.80;;;;;;5049672;28;20095;-57
2023/01/11 03:39:32;;;;;;;1.10;0.22;;;19.70;51.90;;;;;;5052392;28;20112;-57
2023/01/11 03:42:01;;;;;;;0.10;0.10;;;19.70;52.00;;;;;;5048750;28;20049;-56
2023/01/11 03:44:32;;;;;;;0.43;0.10;;;19.70;52.00;;;;;;5051892;28;20040;-56
2023/01/11 03:47:03;;;;;;;0.20;0.20;;;19.70;52.00;;;;;;5050456;28;20052;-57
2023/01/11 03:49:37;;;;;;;0.32;0.10;;;19.70;52.10;;;;;;5051075;28;20075;-56
2023/01/11 03:52:06;;;;;;;0.22;0.20;;;19.70;52.00;;;;;;5050403;28;20572;-59
2023/01/11 03:54:33;;;;;;;0.00;0.00;;;19.70;52.00;;;;;;5050678;28;20966;-57
2023/01/11 03:57:07;;;;;;;0.20;0.20;;;19.70;52.00;;;;;;5049476;28;20628;-56
2023/01/11 03:59:33;;;;;;;0.15;0.15;;;19.70;52.10;;;;;;5049286;28;20055;-59
2023/01/11 04:02:00;;;;;;;0.10;0.10;;;19.70;52.10;;;;;;5049366;28;20430;-57
2023/01/11 04:04:26;;;;;;;0.47;0.10;;;19.70;52.20;;;;;;5050720;28;20049;-57
2023/01/11 04:06:51;;;;;;;0.32;0.20;;;19.70;52.20;;;;;;5050464;28;20489;-57
2023/01/11 04:09:17;;;;;;;0.30;0.10;;;19.70;52.20;;;;;;5053638;28;20033;-57
2023/01/11 04:11:43;;;;;;;0.98;0.10;;;19.70;52.20;;;;;;5047473;28;20057;-57
2023/01/11 04:14:09;;;;;;;0.10;0.10;;;19.70;52.20;;;;;;5049329;28;20092;-57
2023/01/11 04:16:35;;;;;;;0.30;0.15;;;19.70;52.30;;;;;;5082842;28;20443;-59
2023/01/11 04:19:01;;;;;;;0.10;0.10;;;19.70;52.20;;;;;;5049757;28;20041;-57
2023/01/11 04:21:28;;;;;;;0.10;0.10;;;19.60;52.20;;;;;;5049436;28;20055;-56
2023/01/11 04:23:54;;;;;;;0.10;0.10;;;19.60;52.30;;;;;;5051389;28;20098;-59
2023/01/11 04:26:20;;;;;;;0.43;0.10;;;19.60;52.30;;;;;;5050210;28;20052;-57
2023/01/11 04:28:46;;;;;;;0.20;0.20;;;19.60;52.20;;;;;;5081570;28;20240;-57
2023/01/11 04:31:12;;;;;;;0.05;0.03;;;19.70;52.30;;;;;;5049495;28;20481;-58
2023/01/11 04:33:37;;;;;;;0.75;0.10;;;19.60;52.30;;;;;;5047418;28;20474;-57
2023/01/11 04:36:05;;;;;;;0.20;0.20;;;19.60;52.30;;;;;;5048107;28;20033;-57
2023/01/11 04:38:32;;;;;;;0.20;0.08;;;19.60;52.40;;;;;;5038379;28;20108;-56
2023/01/11 04:43:42;;;;;;;0.15;0.15;;;19.60;52.40;;;;;;5049987;28;20122;-58
2023/01/11 04:46:09;;;;;;;0.20;0.20;;;19.60;52.40;;;;;;5050074;28;20053;-57
2023/01/11 04:48:38;;;;;;;0.10;0.10;;;19.60;52.50;;;;;;5052035;28;20055;-56
2023/01/11 04:51:07;;;;;;;0.30;0.20;;;19.60;52.50;;;;;;5050334;28;20080;-57
2023/01/11 04:53:33;;;;;;;0.13;0.10;;;19.60;52.50;;;;;;5038219;28;20159;-59
2023/01/11 04:56:01;;;;;;;0.10;0.10;;;19.60;53.20;;;;;;5049080;28;20049;-57
2023/01/11 04:58:31;;;;;;;0.10;0.10;;;19.60;52.60;;;;;;5048726;28;20061;-56
2023/01/11 05:00:56;;;;;;;0.10;0.10;;;19.60;52.60;;;;;;5063956;28;20037;-57
2023/01/11 05:03:22;;;;;;;0.20;0.20;;;19.60;52.60;;;;;;5081239;28;20071;-57
2023/01/11 05:05:59;;;;;;;0.30;0.10;;;19.60;52.70;;;;;;5051457;28;20048;-56
2023/01/11 05:08:26;;;;;;;0.63;0.20;;;19.60;52.70;;;;;;5051646;28;20093;-58
2023/01/11 05:10:57;;;;;;;0.20;0.20;;;19.50;52.70;;;;;;5049750;28;20119;-56
2023/01/11 05:13:40;;;;;;;0.17;0.17;;;19.50;52.60;;;;;;5049544;28;20038;-58
2023/01/11 05:16:17;;;;;;;0.20;0.20;;;19.50;52.70;;;;;;5049336;28;20833;-56
2023/01/11 05:18:50;;;;;;;0.60;0.30;;;19.50;52.80;;;;;;5061983;28;20125;-58
2023/01/11 05:21:19;;;;;;;0.95;0.30;;;19.50;52.80;;;;;;5046576;28;20049;-56
2023/01/11 05:23:45;;;;;;;0.30;0.30;;;19.50;52.80;;;;;;5049315;28;20425;-56
2023/01/11 05:26:16;;;;;;;0.30;0.30;;;19.50;52.80;;;;;;5049631;28;20048;-57
2023/01/11 05:28:42;;;;;;;0.82;0.20;;;19.50;52.90;;;;;;5047647;28;20045;-57
2023/01/11 05:31:08;;;;;;;1.10;0.30;;;19.50;53.00;;;;;;5048156;28;20130;-58
2023/01/11 05:33:34;;;;;;;0.65;0.30;;;19.40;52.90;;;;;;5048776;28;20047;-58
2023/01/11 05:36:02;;;;;;;0.10;0.10;;;19.50;53.00;;;;;;5017856;28;20081;-61
2023/01/11 05:38:28;;;;;;;2.25;0.30;;;19.50;52.90;;;;;;5050200;28;20388;-56
2023/01/11 05:40:59;;;;;;;2.67;0.52;;;19.50;53.00;;;;;;5048926;28;20049;-57
2023/01/11 05:43:26;;;;;;;4.35;0.40;;;19.50;53.10;;;;;;5037952;28;20570;-57
2023/01/11 05:45:52;;;;;;;3.00;0.40;;;19.50;53.10;;;;;;5053243;28;20044;-57
2023/01/11 05:48:18;;;;;;;5.75;0.60;;;19.50;53.10;;;;;;5083292;28;20519;-56
2023/01/11 05:50:53;;;;;;;2.78;0.60;;;19.50;53.20;;;;;;5085249;28;20053;-57
2023/01/11 05:53:20;;;;;;;2.38;0.50;;;19.50;53.30;;;;;;5037371;28;20044;-57
2023/01/11 05:55:57;;;;;;;1.73;0.52;;;19.50;53.40;;;;;;5054991;28;20048;-56
2023/01/11 05:58:25;;;;;;;8.00;0.90;;;19.50;53.40;;;;;;5048001;28;20073;-58
2023/01/11 06:00:54;;;;;;;5.07;0.70;;;19.40;53.30;;;;;;5049692;28;20127;-56
2023/01/11 06:03:21;;;;;;;4.38;0.75;;;19.40;53.50;;;;;;5040681;28;20044;-58
2023/01/11 06:05:47;;;;;;;9.15;0.80;;;19.40;53.50;;;;;;5047857;28;20505;-57
2023/01/11 06:08:13;;;;;;;4.85;0.90;;;19.40;53.60;;;;;;5046572;28;20733;-57
2023/01/11 06:10:40;;;;;;;2.95;0.82;;;19.40;53.60;;;;;;5083826;27;20484;-58
2023/01/11 06:15:51;;;;;;;3.45;1.00;;;19.50;53.70;;;;;;5048137;28;20041;-58
2023/01/11 06:18:17;;;;;;;2.75;0.90;;;19.50;53.80;;;;;;5050383;28;20393;-57
2023/01/11 06:20:42;;;;;;;5.63;1.20;;;19.50;53.80;;;;;;5053813;28;20045;-57
2023/01/11 06:23:08;;;;;;;7.10;1.33;;;19.50;53.80;;;;;;5046466;28;20040;-56
